createdAt,value
2023-04-11T07:03:14.065Z,16.20
2023-04-11T07:05:43.215Z,17.60
2023-04-11T07:27:51.583Z,12.70
2023-04-11T07:30:18.305Z,12.60
2023-04-11T07:32:47.363Z,12.70
2023-04-11T07:35:14.467Z,12.70
2023-04-11T07:37:43.564Z,12.50
2023-04-11T07:40:12.121Z,12.40
2023-04-11T07:42:38.777Z,12.60
2023-04-11T07:45:06.348Z,12.60
2023-04-11T07:47:33.255Z,12.80
2023-04-11T07:50:02.204Z,12.70
2023-04-11T07:52:31.321Z,12.60
2023-04-11T07:54:57.952Z,12.70
2023-04-11T07:57:24.749Z,12.50
2023-04-11T07:59:57.016Z,12.40
2023-04-11T08:02:23.842Z,12.30
2023-04-11T08:04:52.104Z,12.30
2023-04-11T08:07:18.851Z,12.20
2023-04-11T08:09:45.685Z,12.10
2023-04-11T08:12:12.317Z,12.00
2023-04-11T08:14:41.204Z,12.00
2023-04-11T08:17:17.706Z,12.10
2023-04-11T08:19:52.145Z,12.20
2023-04-11T08:22:21.292Z,12.50
2023-04-11T08:24:47.956Z,12.60
2023-04-11T08:27:17.100Z,12.90
2023-04-11T08:29:43.770Z,12.90
2023-04-11T08:32:12.584Z,12.90
2023-04-11T08:34:41.520Z,12.80
2023-04-11T08:37:08.203Z,12.70
2023-04-11T08:39:34.865Z,12.70
2023-04-11T08:42:01.546Z,12.60
2023-04-11T08:44:28.620Z,12.50
2023-04-11T08:46:55.622Z,12.50
2023-04-11T08:49:22.268Z,12.30
2023-04-11T08:51:51.557Z,12.10
2023-04-11T08:54:18.390Z,11.90
2023-04-11T08:56:45.060Z,12.00
2023-04-11T08:59:11.741Z,11.90
2023-04-11T09:01:40.853Z,12.00
2023-04-11T09:04:08.432Z,12.10
2023-04-11T09:06:35.217Z,12.10
2023-04-11T09:09:08.182Z,12.30
2023-04-11T09:11:54.247Z,12.50
2023-04-11T09:17:00.299Z,12.70
2023-04-11T09:19:31.514Z,12.80
2023-04-11T09:22:00.545Z,12.90
2023-04-11T09:24:28.163Z,12.80
2023-04-11T09:27:13.374Z,12.90
2023-04-11T09:29:46.388Z,13.00
2023-04-11T09:32:25.435Z,12.90
2023-04-11T09:34:52.146Z,12.80
2023-04-11T09:37:21.643Z,12.80
2023-04-11T09:39:57.075Z,12.90
2023-04-11T09:42:25.250Z,13.10
2023-04-11T09:44:51.950Z,13.30
2023-04-11T09:47:18.894Z,13.30
2023-04-11T09:49:48.513Z,13.30
2023-04-11T09:52:17.934Z,13.20
2023-04-11T09:54:47.188Z,13.00
2023-04-11T09:57:14.248Z,13.00
2023-04-11T09:59:40.978Z,13.00
2023-04-11T10:02:09.914Z,13.10
2023-04-11T10:04:38.431Z,13.30
2023-04-11T10:07:16.961Z,13.50
2023-04-11T10:09:45.395Z,13.60
2023-04-11T10:12:14.410Z,13.50
2023-04-11T10:14:43.766Z,13.70
2023-04-11T10:17:23.587Z,13.60
2023-04-11T10:19:57.271Z,13.80
2023-04-11T10:22:44.293Z,13.70
2023-04-11T10:25:17.745Z,13.80
2023-04-11T10:27:50.240Z,13.70
2023-04-11T10:30:17.134Z,13.60
2023-04-11T10:33:09.870Z,13.50
2023-04-11T10:35:55.723Z,13.40
2023-04-11T10:38:43.977Z,13.30
2023-04-11T10:41:19.239Z,13.30
2023-04-11T10:43:48.626Z,13.30
2023-04-11T10:46:22.351Z,13.30
2023-04-11T10:49:02.405Z,13.40
2023-04-11T10:51:29.691Z,13.50
2023-04-11T10:53:59.522Z,13.70
2023-04-11T10:56:38.501Z,13.70
2023-04-11T10:59:07.305Z,13.50
2023-04-11T11:04:09.924Z,13.40
2023-04-11T11:06:54.548Z,13.50
2023-04-11T11:09:30.795Z,13.60
2023-04-11T11:12:09.547Z,13.70
2023-04-11T11:14:36.536Z,13.80
2023-04-11T11:17:03.421Z,13.80
2023-04-11T11:19:31.014Z,14.00
2023-04-11T11:22:03.302Z,14.10
2023-04-11T11:24:30.573Z,14.10
2023-04-11T11:27:00.441Z,14.10
2023-04-11T11:29:34.531Z,14.10
2023-04-11T11:32:03.454Z,14.30
2023-04-11T11:34:31.167Z,14.50
2023-04-11T11:36:59.058Z,14.50
2023-04-11T11:39:26.030Z,14.50
2023-04-11T11:41:53.465Z,14.30
2023-04-11T11:44:23.640Z,14.30
2023-04-11T11:47:03.338Z,14.30
2023-04-11T11:49:45.459Z,14.20
2023-04-11T11:52:12.782Z,14.40
2023-04-11T11:54:43.078Z,14.40
2023-04-11T11:57:09.836Z,14.40
2023-04-11T11:59:36.686Z,14.40
2023-04-11T12:02:06.262Z,14.40
2023-04-11T12:04:33.289Z,14.50
2023-04-11T12:07:07.616Z,14.60
2023-04-11T12:09:34.222Z,14.70
2023-04-11T12:12:03.114Z,14.90
2023-04-11T12:14:29.751Z,15.00
2023-04-11T12:16:56.309Z,14.80
2023-04-11T12:19:23.440Z,14.80
2023-04-11T12:21:50.112Z,14.80
2023-04-11T12:24:19.129Z,14.90
2023-04-11T12:27:05.432Z,15.00
2023-04-11T12:29:32.859Z,15.30
2023-04-11T12:32:01.592Z,15.20
2023-04-11T12:34:28.278Z,15.30
2023-04-11T12:36:54.924Z,15.40
2023-04-11T12:39:21.527Z,15.50
2023-04-11T12:41:50.471Z,15.50
2023-04-11T12:44:17.062Z,15.50
2023-04-11T12:46:43.830Z,15.60
2023-04-11T12:49:10.547Z,15.70
2023-04-11T12:51:37.185Z,15.60
2023-04-11T12:54:04.740Z,15.70
2023-04-11T12:56:31.344Z,15.80
2023-04-11T12:59:00.502Z,15.80
2023-04-11T13:01:32.132Z,15.90
2023-04-11T13:03:58.905Z,15.90
2023-04-11T13:06:26.012Z,15.70
2023-04-11T13:08:52.664Z,15.60
2023-04-11T13:11:19.346Z,15.60
2023-04-11T13:13:46.053Z,15.60
2023-04-11T13:16:12.775Z,15.60
2023-04-11T13:18:39.352Z,15.50
2023-04-11T13:21:06.168Z,15.40
2023-04-11T13:23:32.759Z,15.50
2023-04-11T13:26:00.919Z,15.60
2023-04-11T13:28:29.888Z,15.80
2023-04-11T13:30:58.962Z,15.60
2023-04-11T13:33:26.335Z,15.40
2023-04-11T13:35:53.165Z,15.40
2023-04-11T13:38:19.778Z,15.50
2023-04-11T13:40:46.499Z,15.50
2023-04-11T13:43:13.401Z,15.40
2023-04-11T13:45:40.053Z,15.40
2023-04-11T13:48:07.049Z,15.30
2023-04-11T13:50:36.580Z,15.40
2023-04-11T13:53:03.147Z,15.40
2023-04-11T13:55:30.006Z,15.40
2023-04-11T13:57:56.541Z,15.20
2023-04-11T14:00:23.285Z,15.20
2023-04-11T14:02:51.314Z,15.20
2023-04-11T14:05:21.400Z,15.10
2023-04-11T14:07:50.210Z,15.20
2023-04-11T14:10:16.791Z,15.20
2023-04-11T14:12:43.387Z,15.20
2023-04-11T14:15:10.361Z,15.00
2023-04-11T14:17:36.926Z,14.90
2023-04-11T14:20:08.380Z,14.90
2023-04-11T14:22:35.748Z,15.00
2023-04-11T14:25:04.519Z,15.10
2023-04-11T14:27:33.398Z,15.30
2023-04-11T14:29:59.951Z,15.40
2023-04-11T14:32:28.956Z,15.30
2023-04-11T14:34:55.666Z,15.10
2023-04-11T14:37:22.253Z,15.20
2023-04-11T14:39:48.781Z,15.20
2023-04-11T14:42:15.361Z,15.10
2023-04-11T14:44:42.035Z,15.00
2023-04-11T14:47:08.590Z,15.20
2023-04-11T14:49:35.506Z,15.40
2023-04-11T14:52:02.118Z,15.30
2023-04-11T14:54:28.749Z,15.40
2023-04-11T14:56:58.551Z,15.30
2023-04-11T14:59:27.742Z,15.20
2023-04-11T15:01:57.651Z,15.10
2023-04-11T15:04:24.555Z,15.10
2023-04-11T15:06:53.681Z,15.20
2023-04-11T15:09:21.074Z,15.30
2023-04-11T15:11:52.767Z,15.20
2023-04-11T15:14:19.406Z,15.20
2023-04-11T15:16:48.151Z,15.20
2023-04-11T15:19:14.756Z,15.20
2023-04-11T15:21:41.564Z,15.10
2023-04-11T15:24:10.316Z,15.10
2023-04-11T15:26:36.880Z,15.20
2023-04-11T15:29:03.467Z,15.30
2023-04-11T15:31:30.700Z,15.30
2023-04-11T15:34:01.141Z,15.40
2023-04-11T15:36:28.635Z,15.50
2023-04-11T15:38:57.477Z,15.50
2023-04-11T15:41:24.238Z,15.50
2023-04-11T15:43:53.326Z,15.50
2023-04-11T15:46:20.012Z,15.30
2023-04-11T15:48:46.674Z,15.20
2023-04-11T15:51:17.106Z,15.20
2023-04-11T15:53:43.707Z,15.10
2023-04-11T15:56:11.065Z,15.10
2023-04-11T15:58:40.126Z,15.10
2023-04-11T16:01:06.935Z,15.00
2023-04-11T16:03:35.965Z,15.20
2023-04-11T16:06:02.770Z,15.30
2023-04-11T16:08:29.454Z,15.40
2023-04-11T16:10:58.245Z,15.40
2023-04-11T16:13:25.233Z,15.40
2023-04-11T16:15:51.818Z,15.40
2023-04-11T16:18:18.455Z,15.40
2023-04-11T16:20:45.197Z,15.40
2023-04-11T16:23:11.809Z,15.40
2023-04-11T16:25:38.364Z,15.50
2023-04-11T16:28:04.903Z,15.50
2023-04-11T16:30:31.492Z,15.40
2023-04-11T16:32:58.123Z,15.40
2023-04-11T16:35:24.753Z,15.30
2023-04-11T16:37:53.769Z,15.30
2023-04-11T16:40:20.806Z,15.30
2023-04-11T16:42:47.565Z,15.40
2023-04-11T16:45:14.328Z,15.20
2023-04-11T16:47:41.024Z,15.10
2023-04-11T16:50:07.927Z,15.10
2023-04-11T16:52:34.605Z,15.00
2023-04-11T16:55:03.496Z,15.00
2023-04-11T16:57:30.292Z,14.90
2023-04-11T16:59:57.291Z,14.90
2023-04-11T17:02:24.265Z,14.90
2023-04-11T17:04:53.490Z,14.90
2023-04-11T17:07:20.169Z,14.80
2023-04-11T17:09:47.485Z,14.80
2023-04-11T17:12:14.084Z,14.70
2023-04-11T17:14:40.716Z,14.70
2023-04-11T17:17:07.390Z,14.60
2023-04-11T17:19:33.969Z,14.60
2023-04-11T17:22:00.648Z,14.60
2023-04-11T17:24:29.342Z,14.50
2023-04-11T17:26:56.960Z,14.50
2023-04-11T17:29:23.779Z,14.50
2023-04-11T17:31:50.413Z,14.50
2023-04-11T17:34:17.104Z,14.40
2023-04-11T17:36:48.563Z,14.30
2023-04-11T17:39:20.687Z,14.30
2023-04-11T17:41:48.135Z,14.30
2023-04-11T17:44:15.024Z,14.30
2023-04-11T17:46:41.879Z,14.20
2023-04-11T17:49:08.650Z,14.40
2023-04-11T17:51:43.044Z,14.10
2023-04-11T17:54:15.549Z,14.20
2023-04-11T17:56:42.109Z,14.10
2023-04-11T17:59:08.686Z,14.10
2023-04-11T18:01:35.299Z,14.10
2023-04-11T18:04:02.502Z,14.10
2023-04-11T18:06:34.122Z,14.00
2023-04-11T18:09:01.864Z,13.90
2023-04-11T18:11:28.434Z,13.90
2023-04-11T18:13:55.580Z,13.90
2023-04-11T18:16:22.524Z,13.80
2023-04-11T18:18:49.095Z,13.80
2023-04-11T18:21:18.138Z,13.70
2023-04-11T18:23:44.739Z,13.60
2023-04-11T18:26:11.303Z,13.60
2023-04-11T18:28:40.317Z,13.60
2023-04-11T18:31:06.890Z,13.60
2023-04-11T18:33:34.378Z,13.60
2023-04-11T18:36:02.063Z,13.50
2023-04-11T18:38:28.720Z,13.50
2023-04-11T18:40:56.093Z,13.50
2023-04-11T18:43:26.154Z,13.50
2023-04-11T18:45:53.057Z,13.30
2023-04-11T18:48:19.685Z,13.30
2023-04-11T18:50:48.859Z,13.30
2023-04-11T18:53:15.635Z,13.30
2023-04-11T18:55:44.421Z,13.20
2023-04-11T18:58:18.610Z,13.30
2023-04-11T19:00:48.650Z,13.20
2023-04-11T19:03:16.551Z,13.20
2023-04-11T19:05:44.020Z,13.20
2023-04-11T19:08:11.194Z,13.10
2023-04-11T19:10:37.744Z,13.20
2023-04-11T19:13:04.347Z,13.10
2023-04-11T19:15:33.360Z,13.20
2023-04-11T19:17:59.979Z,13.10
2023-04-11T19:20:29.557Z,12.90
2023-04-11T19:22:56.267Z,13.00
2023-04-11T19:25:22.991Z,13.00
2023-04-11T19:27:51.779Z,13.00
2023-04-11T19:30:18.356Z,13.00
2023-04-11T19:32:47.240Z,13.00
2023-04-11T19:35:16.910Z,13.00
2023-04-11T19:37:43.505Z,13.00
2023-04-11T19:40:16.542Z,12.90
2023-04-11T19:42:48.749Z,12.80
2023-04-11T19:45:15.400Z,12.80
2023-04-11T19:47:42.060Z,12.80
2023-04-11T19:50:11.648Z,12.70
2023-04-11T19:52:40.878Z,12.60
2023-04-11T19:55:09.326Z,12.70
2023-04-11T19:57:38.196Z,12.50
2023-04-11T20:00:16.918Z,12.40
2023-04-11T20:02:44.861Z,12.50
2023-04-11T20:05:12.073Z,12.50
2023-04-11T20:07:39.201Z,12.60
2023-04-11T20:10:09.564Z,12.60
2023-04-11T20:12:36.352Z,12.60
2023-04-11T20:15:05.138Z,12.20
2023-04-11T20:17:34.191Z,12.30
2023-04-11T20:20:05.436Z,12.30
2023-04-11T20:22:32.148Z,12.20
2023-04-11T20:24:58.697Z,12.20
2023-04-11T20:27:28.096Z,12.20
2023-04-11T20:29:56.605Z,12.10
2023-04-11T20:32:23.310Z,12.10
2023-04-11T20:34:52.352Z,12.10
2023-04-11T20:37:19.446Z,12.10
2023-04-11T20:39:48.287Z,12.10
2023-04-11T20:42:15.244Z,12.10
2023-04-11T20:44:42.630Z,12.00
2023-04-11T20:47:09.324Z,12.00
2023-04-11T20:49:36.197Z,11.90
2023-04-11T20:52:18.863Z,11.90
2023-04-11T20:54:45.425Z,12.00
2023-04-11T20:57:11.999Z,12.00
2023-04-11T20:59:39.152Z,11.80
2023-04-11T21:02:05.937Z,11.80
2023-04-11T21:04:32.643Z,11.80
2023-04-11T21:06:59.297Z,11.90
2023-04-11T21:09:25.847Z,11.80
2023-04-11T21:11:58.021Z,11.80
2023-04-11T21:14:24.567Z,11.80
2023-04-11T21:16:51.109Z,11.70
2023-04-11T21:19:17.737Z,11.70
2023-04-11T21:21:44.329Z,11.80
2023-04-11T21:24:10.942Z,11.70
2023-04-11T21:26:37.814Z,11.70
2023-04-11T21:29:04.381Z,11.60
2023-04-11T21:31:30.948Z,11.60
2023-04-11T21:33:59.901Z,11.60
2023-04-11T21:36:26.528Z,11.60
2023-04-11T21:38:53.257Z,11.40
2023-04-11T21:41:19.816Z,11.50
2023-04-11T21:43:46.333Z,11.40
2023-04-11T21:46:12.907Z,11.50
2023-04-11T21:48:39.538Z,11.50
2023-04-11T21:51:06.207Z,11.50
2023-04-11T21:53:32.743Z,11.40
2023-04-11T21:55:59.354Z,11.50
2023-04-11T21:58:29.467Z,11.30
2023-04-11T22:00:56.759Z,11.40
2023-04-11T22:03:28.834Z,11.40
2023-04-11T22:05:58.189Z,11.40
2023-04-11T22:08:29.367Z,11.40
2023-04-11T22:10:56.193Z,11.30
2023-04-11T22:13:22.812Z,11.40
2023-04-11T22:15:58.389Z,11.30
2023-04-11T22:18:27.898Z,11.20
2023-04-11T22:20:54.532Z,11.20
2023-04-11T22:23:21.719Z,11.20
2023-04-11T22:25:53.375Z,11.20
2023-04-11T22:28:20.482Z,11.20
2023-04-11T22:30:47.043Z,11.30
2023-04-11T22:33:13.912Z,11.20
2023-04-11T22:35:44.919Z,11.20
2023-04-11T22:38:11.590Z,11.20
2023-04-11T22:40:41.170Z,10.90
2023-04-11T22:43:08.216Z,10.80
2023-04-11T22:45:35.919Z,10.80
2023-04-11T22:48:04.195Z,10.80
2023-04-11T22:50:32.154Z,10.90
2023-04-11T22:53:01.998Z,11.00
2023-04-11T22:55:29.120Z,11.00
2023-04-11T22:57:58.184Z,10.80
2023-04-11T23:00:27.245Z,11.10
2023-04-11T23:02:56.760Z,10.40
2023-04-11T23:05:23.967Z,10.60
2023-04-11T23:07:50.652Z,10.60
2023-04-11T23:10:19.417Z,10.50
2023-04-11T23:12:47.253Z,10.30
2023-04-11T23:15:17.281Z,10.20
2023-04-11T23:17:44.872Z,10.20
2023-04-11T23:20:14.186Z,10.20
2023-04-11T23:22:43.924Z,10.40
2023-04-11T23:25:11.624Z,10.60
2023-04-11T23:27:41.089Z,10.60
2023-04-11T23:30:14.884Z,10.50
2023-04-11T23:32:43.980Z,10.00
2023-04-11T23:35:10.828Z,9.80
2023-04-11T23:37:37.554Z,9.80
2023-04-11T23:40:11.135Z,9.70
2023-04-11T23:42:38.266Z,9.70
2023-04-11T23:45:05.853Z,9.60
2023-04-11T23:47:32.581Z,9.60
2023-04-11T23:49:59.146Z,9.30
2023-04-11T23:52:29.037Z,9.20
2023-04-11T23:54:56.152Z,9.20
2023-04-11T23:57:23.117Z,9.20
2023-04-11T23:59:52.319Z,9.30
